Time;durP1;ratioP1;P1;durP2;ratioP2;P2;SDS_P1;SDS_P2;PMS_P1;PMS_P2;Temp;Humidity;BMP_temperature;BMP_pressure;BME280_temperature;BME280_humidity;BME280_pressure;Samples;Min_cycle;Max_cycle;Signal;HPM_P1;HPM_P2
2022/11/20 00:06:00;;;;;;;;;;;-2.60;99.90;;;;;;12622954;28;19931;-38
2022/11/20 00:12:03;;;;;;;;;;;-2.60;99.90;;;;;;12616295;28;19973;-39
2022/11/20 00:18:04;;;;;;;;;;;-2.70;99.90;;;;;;12606109;28;19935;-38
2022/11/20 00:24:08;;;;;;;;;;;-2.80;99.90;;;;;;12615667;28;19925;-38
2022/11/20 00:30:10;;;;;;;;;;;-2.70;99.90;;;;;;12609846;28;19970;-38
2022/11/20 00:36:20;;;;;;;;;;;-2.80;99.90;;;;;;12608084;28;19925;-38
2022/11/20 00:42:22;;;;;;;;;;;-2.90;99.90;;;;;;12612068;28;20392;-38
2022/11/20 00:48:23;;;;;;;;;;;-2.80;99.90;;;;;;12598337;28;19929;-38
2022/11/20 00:54:25;;;;;;;;;;;-3.20;99.90;;;;;;12613201;28;19929;-38
2022/11/20 01:00:27;;;;;;;;;;;-3.20;99.90;;;;;;12601715;28;19925;-38
2022/11/20 01:06:30;;;;;;;;;;;-3.10;99.90;;;;;;12616348;28;20407;-39
2022/11/20 01:12:32;;;;;;;;;;;-3.10;99.90;;;;;;12612710;28;19924;-39
2022/11/20 01:18:34;;;;;;;;;;;-3.10;99.90;;;;;;12617250;28;19932;-38
2022/11/20 01:24:36;;;;;;;;;;;-3.10;99.90;;;;;;12609939;28;19924;-38
2022/11/20 01:30:37;;;;;;;;;;;-3.00;99.90;;;;;;12611335;28;20600;-38
2022/11/20 01:36:40;;;;;;;;;;;-3.00;99.90;;;;;;12605119;28;19928;-38
2022/11/20 01:49:17;;;;;;;;;;;-3.10;99.90;;;;;;12616298;28;19932;-38
2022/11/20 01:55:30;;;;;;;;;;;-3.40;99.90;;;;;;12616708;28;19924;-39
2022/11/20 02:01:33;;;;;;;;;;;-3.30;99.90;;;;;;12611167;28;20287;-39
2022/11/20 02:07:35;;;;;;;;;;;-3.30;99.90;;;;;;12610920;28;19928;-38
2022/11/20 02:13:43;;;;;;;;;;;-3.00;99.90;;;;;;12612167;28;19946;-38
2022/11/20 02:19:44;;;;;;;;;;;-3.30;99.90;;;;;;12619942;28;19936;-38
2022/11/20 02:25:47;;;;;;;;;;;-3.20;99.90;;;;;;12615953;28;19947;-38
2022/11/20 02:31:48;;;;;;;;;;;-3.10;99.90;;;;;;12609460;28;20288;-38
2022/11/20 02:37:52;;;;;;;;;;;-3.30;99.90;;;;;;12608127;28;19925;-38
2022/11/20 02:43:53;;;;;;;;;;;-3.00;99.90;;;;;;12601344;28;19931;-38
2022/11/20 02:49:55;;;;;;;;;;;-3.10;99.90;;;;;;12612298;28;20404;-38
2022/11/20 02:55:57;;;;;;;;;;;-3.40;99.90;;;;;;12614842;28;19931;-38
2022/11/20 03:01:58;;;;;;;;;;;-3.50;99.90;;;;;;12613787;28;19924;-38
2022/11/20 03:08:00;;;;;;;;;;;-3.60;99.90;;;;;;12619114;28;19924;-39
2022/11/20 03:14:03;;;;;;;;;;;-3.60;99.90;;;;;;12638646;28;20625;-39
2022/11/20 03:20:05;;;;;;;;;;;-3.50;99.90;;;;;;12614087;28;19935;-38
2022/11/20 03:26:21;;;;;;;;;;;-3.70;99.90;;;;;;12583766;28;19975;-38
2022/11/20 03:32:22;;;;;;;;;;;-3.70;99.90;;;;;;12621023;28;19967;-38
2022/11/20 03:38:24;;;;;;;;;;;-3.60;99.90;;;;;;12627357;28;19930;-38
2022/11/20 03:44:26;;;;;;;;;;;-3.50;99.90;;;;;;12608806;28;19928;-38
2022/11/20 03:50:27;;;;;;;;;;;-3.50;99.90;;;;;;12614974;28;19929;-38
2022/11/20 03:56:30;;;;;;;;;;;-3.40;99.90;;;;;;12618776;28;20284;-38
2022/11/20 04:02:32;;;;;;;;;;;-3.30;99.90;;;;;;12617354;28;19931;-39
2022/11/20 04:08:33;;;;;;;;;;;-3.40;99.90;;;;;;12613043;28;19928;-38
2022/11/20 04:14:35;;;;;;;;;;;-3.60;99.90;;;;;;12611957;28;20099;-38
2022/11/20 04:20:37;;;;;;;;;;;-3.60;99.90;;;;;;12612059;28;19928;-39
2022/11/20 04:26:39;;;;;;;;;;;-3.80;99.90;;;;;;12617725;28;19931;-38
2022/11/20 04:32:40;;;;;;;;;;;-3.70;99.90;;;;;;12592493;28;19932;-39
2022/11/20 04:38:43;;;;;;;;;;;-3.70;99.90;;;;;;12615246;28;19928;-38
2022/11/20 04:44:44;;;;;;;;;;;-3.80;99.90;;;;;;12605559;28;19924;-38
2022/11/20 04:50:46;;;;;;;;;;;-4.10;99.90;;;;;;12615441;28;19936;-38
2022/11/20 04:56:48;;;;;;;;;;;-4.20;99.90;;;;;;12612909;28;19932;-38
2022/11/20 05:02:51;;;;;;;;;;;-4.10;99.90;;;;;;12623618;28;19929;-38
2022/11/20 05:08:52;;;;;;;;;;;-4.00;99.90;;;;;;12609568;28;20061;-38
2022/11/20 05:14:54;;;;;;;;;;;-3.90;99.90;;;;;;12598690;28;19928;-38
2022/11/20 05:20:57;;;;;;;;;;;-3.90;99.90;;;;;;12605859;28;19935;-38
2022/11/20 05:26:58;;;;;;;;;;;-3.90;99.90;;;;;;12596616;28;19966;-38
2022/11/20 05:33:00;;;;;;;;;;;-3.80;99.90;;;;;;12605556;28;19964;-38
2022/11/20 05:39:02;;;;;;;;;;;-3.50;99.90;;;;;;12598588;28;19927;-38
2022/11/20 05:45:04;;;;;;;;;;;-3.10;99.90;;;;;;12603418;28;19924;-40
2022/11/20 05:51:07;;;;;;;;;;;-3.20;99.90;;;;;;12614761;28;21109;-38
2022/11/20 05:57:08;;;;;;;;;;;-3.30;99.90;;;;;;12615760;28;20584;-38
2022/11/20 06:03:10;;;;;;;;;;;-3.20;99.90;;;;;;12618193;28;20303;-38
2022/11/20 06:09:12;;;;;;;;;;;-3.20;99.90;;;;;;12604275;28;19924;-38
2022/11/20 06:15:13;;;;;;;;;;;-3.30;99.90;;;;;;12608411;28;19935;-38
2022/11/20 06:21:16;;;;;;;;;;;-3.30;99.90;;;;;;12602314;28;19925;-38
2022/11/20 06:27:18;;;;;;;;;;;-3.30;99.90;;;;;;12600563;28;19932;-38
2022/11/20 06:33:20;;;;;;;;;;;-3.10;99.90;;;;;;12591822;28;20280;-39
2022/11/20 06:39:21;;;;;;;;;;;-3.20;99.90;;;;;;12592274;28;19974;-38
2022/11/20 06:45:23;;;;;;;;;;;-3.20;99.90;;;;;;12606921;28;19954;-38
2022/11/20 06:51:25;;;;;;;;;;;-3.30;99.90;;;;;;12611784;28;19932;-38
2022/11/20 06:57:27;;;;;;;;;;;-3.30;99.90;;;;;;12614388;28;19934;-38
2022/11/20 07:03:28;;;;;;;;;;;-3.30;99.90;;;;;;12609595;28;19925;-39
2022/11/20 07:09:30;;;;;;;;;;;-3.30;99.90;;;;;;12605804;28;19928;-38
2022/11/20 07:15:32;;;;;;;;;;;-3.20;99.90;;;;;;12610685;28;20007;-38
2022/11/20 07:21:33;;;;;;;;;;;-3.50;99.90;;;;;;12606442;28;19932;-38
2022/11/20 07:27:35;;;;;;;;;;;-3.30;99.90;;;;;;12608356;28;19928;-38
2022/11/20 07:33:37;;;;;;;;;;;-3.20;99.90;;;;;;12602314;28;19928;-38
2022/11/20 07:39:39;;;;;;;;;;;-3.10;99.90;;;;;;12599975;28;19932;-38
2022/11/20 07:45:41;;;;;;;;;;;-3.20;99.90;;;;;;12609991;28;19932;-39
2022/11/20 07:51:42;;;;;;;;;;;-2.90;99.90;;;;;;12602402;28;20318;-38
2022/11/20 07:57:44;;;;;;;;;;;-2.80;99.90;;;;;;12607771;28;19931;-39
2022/11/20 08:03:46;;;;;;;;;;;-2.40;99.90;;;;;;12604267;28;19928;-38
2022/11/20 08:09:47;;;;;;;;;;;-2.00;99.90;;;;;;12610450;28;19949;-38
2022/11/20 08:15:52;;;;;;;;;;;-2.00;99.90;;;;;;12616235;28;19931;-38
2022/11/20 08:21:54;;;;;;;;;;;-2.00;99.90;;;;;;12606320;28;19935;-38
2022/11/20 08:27:57;;;;;;;;;;;-1.90;99.90;;;;;;12615921;28;19928;-38
2022/11/20 08:34:01;;;;;;;;;;;-1.90;99.90;;;;;;12611378;28;19925;-39
2022/11/20 08:40:11;;;;;;;;;;;-1.70;99.90;;;;;;12611274;28;20397;-39
2022/11/20 08:46:20;;;;;;;;;;;-2.00;99.90;;;;;;12608297;28;19929;-38
2022/11/20 08:52:21;;;;;;;;;;;-2.00;99.90;;;;;;12621617;28;19931;-38
2022/11/20 08:58:23;;;;;;;;;;;-2.00;99.90;;;;;;12617716;28;19934;-38
2022/11/20 09:04:25;;;;;;;;;;;-2.00;99.90;;;;;;12601573;28;19932;-38
2022/11/20 09:10:27;;;;;;;;;;;-1.70;99.90;;;;;;12588275;28;19947;-38
2022/11/20 09:16:29;;;;;;;;;;;-1.60;99.90;;;;;;12592432;28;19931;-38
2022/11/20 09:22:31;;;;;;;;;;;-1.80;99.90;;;;;;12615799;28;19931;-38
2022/11/20 09:28:32;;;;;;;;;;;-1.80;99.90;;;;;;12609726;28;20395;-39
2022/11/20 09:34:34;;;;;;;;;;;-1.60;99.90;;;;;;12604865;28;19931;-38
2022/11/20 09:40:38;;;;;;;;;;;-1.30;99.90;;;;;;12613080;28;19943;-39
2022/11/20 09:46:45;;;;;;;;;;;-0.80;99.90;;;;;;12608312;28;20126;-38
2022/11/20 09:52:50;;;;;;;;;;;-0.30;99.90;;;;;;12616436;28;20397;-38
2022/11/20 09:58:53;;;;;;;;;;;-0.50;99.90;;;;;;12622446;28;20392;-38
2022/11/20 10:04:58;;;;;;;;;;;-0.20;99.90;;;;;;12599218;28;19976;-38
2022/11/20 10:11:13;;;;;;;;;;;-0.30;99.90;;;;;;12611335;28;19932;-40
2022/11/20 10:17:40;;;;;;;;;;;0.20;99.90;;;;;;12607057;28;19924;-39
2022/11/20 10:23:55;;;;;;;;;;;0.10;99.90;;;;;;12604676;28;19972;-39
2022/11/20 10:30:07;;;;;;;;;;;0.10;99.90;;;;;;12612830;28;20273;-39
2022/11/20 10:36:24;;;;;;;;;;;0.60;99.90;;;;;;12595181;28;19924;-39
2022/11/20 10:42:30;;;;;;;;;;;0.60;99.90;;;;;;12605312;28;20372;-39
2022/11/20 10:48:32;;;;;;;;;;;0.60;99.90;;;;;;12595036;28;19930;-39
2022/11/20 10:54:38;;;;;;;;;;;0.60;99.90;;;;;;12606483;28;19928;-39
2022/11/20 11:00:40;;;;;;;;;;;0.60;99.90;;;;;;12611012;28;19963;-39
2022/11/20 11:06:45;;;;;;;;;;;0.40;99.90;;;;;;12598869;28;19947;-38
2022/11/20 11:12:50;;;;;;;;;;;0.20;99.90;;;;;;12615383;28;19936;-39
2022/11/20 11:19:03;;;;;;;;;;;0.40;99.90;;;;;;12611404;28;19924;-39
2022/11/20 11:25:05;;;;;;;;;;;1.00;99.90;;;;;;12624827;28;19924;-39
2022/11/20 11:31:06;;;;;;;;;;;1.10;99.90;;;;;;12607245;28;19932;-39
2022/11/20 11:37:19;;;;;;;;;;;1.10;99.90;;;;;;12597256;28;19924;-39
2022/11/20 11:50:00;;;;;;;;;;;1.10;99.90;;;;;;12616408;28;19925;-39
2022/11/20 11:56:09;;;;;;;;;;;1.40;99.90;;;;;;12615676;28;19924;-39
2022/11/20 12:02:34;;;;;;;;;;;1.60;99.90;;;;;;12601731;28;20089;-39
2022/11/20 12:08:43;;;;;;;;;;;2.00;99.90;;;;;;12599945;28;20002;-39
2022/11/20 12:14:46;;;;;;;;;;;2.50;99.90;;;;;;12609463;28;20034;-39
2022/11/20 12:20:54;;;;;;;;;;;2.80;99.90;;;;;;12612262;28;19970;-39
2022/11/20 12:27:15;;;;;;;;;;;2.50;99.90;;;;;;12628919;28;19935;-40
2022/11/20 12:33:19;;;;;;;;;;;2.60;99.90;;;;;;12615998;28;19933;-39
2022/11/20 12:39:27;;;;;;;;;;;3.20;99.90;;;;;;12585950;28;19924;-39
2022/11/20 12:45:35;;;;;;;;;;;2.70;99.90;;;;;;12598136;28;19924;-40
2022/11/20 12:51:59;;;;;;;;;;;3.10;99.90;;;;;;12621353;28;20185;-40
2022/11/20 12:58:08;;;;;;;;;;;3.00;99.90;;;;;;12607844;28;19924;-39
2022/11/20 13:04:13;;;;;;;;;;;3.20;99.90;;;;;;12607545;28;19932;-40
2022/11/20 13:10:25;;;;;;;;;;;3.00;99.90;;;;;;12610917;28;19924;-39
2022/11/20 13:16:36;;;;;;;;;;;2.80;99.90;;;;;;12613689;28;19932;-39
2022/11/20 13:22:43;;;;;;;;;;;2.70;99.90;;;;;;12597073;28;19933;-39
2022/11/20 13:28:46;;;;;;;;;;;2.70;99.90;;;;;;12604117;28;19925;-39
2022/11/20 13:34:55;;;;;;;;;;;2.60;99.90;;;;;;12604008;28;19948;-39
2022/11/20 13:40:59;;;;;;;;;;;2.50;99.90;;;;;;12613638;28;19932;-39
2022/11/20 13:47:01;;;;;;;;;;;2.20;99.90;;;;;;12614669;28;19932;-39
2022/11/20 13:53:08;;;;;;;;;;;2.00;99.90;;;;;;12606878;28;19932;-39
2022/11/20 13:59:29;;;;;;;;;;;1.80;99.90;;;;;;12616256;28;19925;-39
2022/11/20 14:05:32;;;;;;;;;;;1.70;99.90;;;;;;12607938;28;19932;-39
2022/11/20 14:11:34;;;;;;;;;;;1.50;99.90;;;;;;12615101;28;19924;-39
2022/11/20 14:17:36;;;;;;;;;;;1.40;99.90;;;;;;12601915;28;19931;-39
2022/11/20 14:23:38;;;;;;;;;;;1.30;99.90;;;;;;12597529;28;19929;-40
2022/11/20 14:29:41;;;;;;;;;;;1.20;99.90;;;;;;12617176;28;20315;-42
2022/11/20 14:35:47;;;;;;;;;;;1.00;99.90;;;;;;12594557;28;20410;-40
2022/11/20 14:41:52;;;;;;;;;;;0.70;99.90;;;;;;12613961;28;19924;-39
2022/11/20 14:47:55;;;;;;;;;;;0.60;99.90;;;;;;12613480;28;19951;-40
2022/11/20 14:54:09;;;;;;;;;;;0.40;99.90;;;;;;12610138;28;19924;-42
2022/11/20 15:12:55;;;;;;;;;;;0.50;99.90;;;;;;12600235;23;19929;-83
2022/11/20 15:18:57;;;;;;;;;;;0.30;99.90;;;;;;12571928;28;19932;-83
2022/11/20 15:24:58;;;;;;;;;;;0.30;99.90;;;;;;12574237;28;19939;-83
2022/11/20 15:31:02;;;;;;;;;;;0.30;99.90;;;;;;12573132;28;19932;-83
2022/11/20 15:37:03;;;;;;;;;;;0.40;99.90;;;;;;12578404;28;20356;-84
2022/11/20 15:43:07;;;;;;;;;;;0.30;99.90;;;;;;12574724;28;19965;-84
2022/11/20 15:49:15;;;;;;;;;;;0.20;99.90;;;;;;12576382;28;20291;-84
2022/11/20 15:55:16;;;;;;;;;;;0.10;99.90;;;;;;12562227;28;19931;-84
2022/11/20 16:01:20;;;;;;;;;;;0.10;99.90;;;;;;12584285;28;19967;-83
2022/11/20 16:07:21;;;;;;;;;;;0.20;99.90;;;;;;12564971;28;19974;-83
2022/11/20 16:19:43;;;;;;;;;;;0.10;99.90;;;;;;12545353;28;19943;-83
2022/11/20 16:25:45;;;;;;;;;;;0.00;99.90;;;;;;12533649;28;20368;-83
2022/11/20 16:31:46;;;;;;;;;;;-0.10;99.90;;;;;;12535749;28;19935;-83
2022/11/20 16:37:48;;;;;;;;;;;-0.10;99.90;;;;;;12549489;28;19936;-83
2022/11/20 16:43:51;;;;;;;;;;;-0.20;99.90;;;;;;12555924;28;19931;-83
2022/11/20 16:49:52;;;;;;;;;;;-0.10;99.90;;;;;;12551811;28;21196;-83
2022/11/20 16:55:54;;;;;;;;;;;-0.10;99.90;;;;;;12552558;28;19925;-82
2022/11/20 17:01:56;;;;;;;;;;;0.00;99.90;;;;;;12567546;28;19929;-83
2022/11/20 17:07:58;;;;;;;;;;;0.00;99.90;;;;;;12558600;28;19951;-84
2022/11/20 17:13:59;;;;;;;;;;;0.10;99.90;;;;;;12583982;28;19928;-85
2022/11/20 17:20:01;;;;;;;;;;;0.10;99.90;;;;;;12583044;28;19935;-84
2022/11/20 17:26:04;;;;;;;;;;;0.20;99.90;;;;;;12586676;28;20126;-85
2022/11/20 17:32:06;;;;;;;;;;;0.10;99.90;;;;;;12549602;28;19925;-85
2022/11/20 17:38:08;;;;;;;;;;;0.20;99.90;;;;;;12563597;28;20284;-85
2022/11/20 17:44:10;;;;;;;;;;;0.20;99.90;;;;;;12555799;28;19925;-85
2022/11/20 17:50:12;;;;;;;;;;;0.30;99.90;;;;;;12558472;28;19940;-85
2022/11/20 18:02:35;;;;;;;;;;;0.40;99.90;;;;;;12599572;28;19970;-85
2022/11/20 18:08:36;;;;;;;;;;;0.30;99.90;;;;;;12555464;28;20406;-84
2022/11/20 18:14:38;;;;;;;;;;;0.40;99.90;;;;;;12552718;28;19928;-85
2022/11/20 18:20:40;;;;;;;;;;;0.40;99.90;;;;;;12550603;28;20412;-85
2022/11/20 18:26:42;;;;;;;;;;;0.50;99.90;;;;;;12561865;28;20295;-85
2022/11/20 18:32:45;;;;;;;;;;;0.50;99.90;;;;;;12559370;28;20604;-85
2022/11/20 18:38:47;;;;;;;;;;;0.50;99.90;;;;;;12543175;28;19925;-85
2022/11/20 18:44:55;;;;;;;;;;;0.50;99.90;;;;;;12555169;28;19929;-85
2022/11/20 18:51:06;;;;;;;;;;;0.50;99.90;;;;;;12551609;28;19931;-85
2022/11/20 18:57:13;;;;;;;;;;;0.50;99.90;;;;;;12524107;28;19952;-85
2022/11/20 19:03:14;;;;;;;;;;;0.60;99.90;;;;;;12566236;28;19932;-85
2022/11/20 19:09:16;;;;;;;;;;;0.60;99.90;;;;;;12560147;28;19931;-85
2022/11/20 19:15:18;;;;;;;;;;;0.50;99.90;;;;;;12571429;28;19936;-85
2022/11/20 19:21:21;;;;;;;;;;;0.50;99.90;;;;;;12559693;28;19925;-85
2022/11/20 19:27:23;;;;;;;;;;;0.50;99.90;;;;;;12557981;28;19936;-85
2022/11/20 19:33:24;;;;;;;;;;;0.50;99.90;;;;;;12554532;28;19928;-85
2022/11/20 19:39:26;;;;;;;;;;;0.50;99.90;;;;;;12560003;28;19932;-85
2022/11/20 19:45:28;;;;;;;;;;;0.50;99.90;;;;;;12577080;28;19925;-85
2022/11/20 19:51:31;;;;;;;;;;;0.50;99.90;;;;;;12585827;28;19924;-85
2022/11/20 19:57:33;;;;;;;;;;;0.50;99.90;;;;;;12570627;28;19948;-85
2022/11/20 20:03:35;;;;;;;;;;;0.50;99.90;;;;;;12575437;28;19928;-85
2022/11/20 20:09:36;;;;;;;;;;;0.50;99.90;;;;;;12576085;28;19939;-85
2022/11/20 20:15:39;;;;;;;;;;;0.60;99.90;;;;;;12559435;28;19926;-85
2022/11/20 20:21:41;;;;;;;;;;;0.60;99.90;;;;;;12553966;28;19929;-85
2022/11/20 20:27:43;;;;;;;;;;;0.60;99.90;;;;;;12549865;28;19936;-85
2022/11/20 20:33:45;;;;;;;;;;;0.40;99.90;;;;;;12559897;28;19931;-85
2022/11/20 20:39:46;;;;;;;;;;;0.50;99.90;;;;;;12545630;28;19933;-85
2022/11/20 20:45:49;;;;;;;;;;;0.50;99.90;;;;;;12553077;28;19935;-85
2022/11/20 20:51:50;;;;;;;;;;;0.50;99.90;;;;;;12558679;28;19931;-85
2022/11/20 20:57:54;;;;;;;;;;;0.50;99.90;;;;;;12552297;28;19932;-85
2022/11/20 21:03:55;;;;;;;;;;;0.50;99.90;;;;;;12541811;28;19929;-85
2022/11/20 21:09:57;;;;;;;;;;;0.50;99.90;;;;;;12573080;28;19974;-85
2022/11/20 21:15:59;;;;;;;;;;;0.50;99.90;;;;;;12573929;28;20277;-85
2022/11/20 21:22:04;;;;;;;;;;;0.40;99.90;;;;;;12580044;28;20026;-85
2022/11/20 21:28:06;;;;;;;;;;;0.50;99.90;;;;;;12571661;28;19932;-85
2022/11/20 21:34:09;;;;;;;;;;;0.50;99.90;;;;;;12590103;28;19932;-85
2022/11/20 21:40:11;;;;;;;;;;;0.50;99.90;;;;;;12570941;28;19925;-85
2022/11/20 21:46:14;;;;;;;;;;;0.50;99.90;;;;;;12576524;28;19924;-85
2022/11/20 21:52:16;;;;;;;;;;;0.50;99.90;;;;;;12557593;28;20402;-85
2022/11/20 21:58:17;;;;;;;;;;;0.50;99.90;;;;;;12568425;28;19933;-86
2022/11/20 22:04:20;;;;;;;;;;;0.40;99.90;;;;;;12584311;28;20388;-85
2022/11/20 22:10:22;;;;;;;;;;;0.30;99.90;;;;;;12533355;28;19932;-85
2022/11/20 22:16:24;;;;;;;;;;;0.30;99.90;;;;;;12564113;28;19963;-85
2022/11/20 22:22:25;;;;;;;;;;;0.30;99.90;;;;;;12540979;28;19994;-85
2022/11/20 22:28:27;;;;;;;;;;;0.30;99.90;;;;;;12546590;28;19925;-85
2022/11/20 22:34:29;;;;;;;;;;;0.20;99.90;;;;;;12552815;28;19933;-86
2022/11/20 22:40:31;;;;;;;;;;;0.30;99.90;;;;;;12561715;28;19930;-85
2022/11/20 22:46:34;;;;;;;;;;;0.30;99.90;;;;;;12527468;28;19932;-85
2022/11/20 22:52:35;;;;;;;;;;;0.30;99.90;;;;;;12555244;28;19959;-85
2022/11/20 22:58:37;;;;;;;;;;;0.30;99.90;;;;;;12533816;28;20366;-85
2022/11/20 23:04:39;;;;;;;;;;;0.30;99.90;;;;;;12557792;28;20347;-85
2022/11/20 23:10:41;;;;;;;;;;;0.30;99.90;;;;;;12567487;28;19932;-85
2022/11/20 23:16:42;;;;;;;;;;;0.30;99.90;;;;;;12566607;28;19948;-85
2022/11/20 23:22:44;;;;;;;;;;;0.30;99.90;;;;;;12578380;28;20033;-85
2022/11/20 23:28:46;;;;;;;;;;;0.30;99.90;;;;;;12592048;28;19928;-85
2022/11/20 23:34:47;;;;;;;;;;;0.30;99.90;;;;;;12572184;28;20045;-85
2022/11/20 23:40:50;;;;;;;;;;;0.30;99.90;;;;;;12589973;28;20311;-85
2022/11/20 23:46:51;;;;;;;;;;;0.30;99.90;;;;;;12587186;28;19924;-85
2022/11/20 23:52:53;;;;;;;;;;;0.20;99.90;;;;;;12584634;28;19924;-85
2022/11/20 23:58:55;;;;;;;;;;;0.30;99.90;;;;;;12579196;28;19936;-85
